Hauptseite
METAR-TAF:

METAR-TAF

Flughäfen :

Flughafen Engadin

St. Moritz, Schweiz

Breite: 46-32-03N, Länge: 9-53-03E, Höhe: 1707 m

Beobachtung

Neuester Wetterbericht von vor 11 Minuten, um 13:50 UTC
Wind 13 kt aus Südwest
Temperatur 22°C
Luftfeuchtigkeit 46%
Luftdruck 1023 hPa
Sichtweite 10 km oder mehr
Leicht bewölkt in der Höhe von 7500 ft

METAR: LSZS 061350Z 22013KT 9999 FEW075 22/10 Q1023 RMK R TL170

Zeit: 16:01 (14:01 UTC)

Prognose

Neuester Wetterbericht von vor 2 Stunden und 36 Minuten, um 11:25 UTC
Gültige Prognose vom 06 um 12 UTC bis 06 um 21 UTC
Wind 5 kt aus Südwest
Sichtweite 10 km oder mehr
Leicht bewölkt in der Höhe von 5000 ft
Wahrscheinlichkeit 40% :
Zeitweise
vom 06 um 15 UTC bis 06 um 19 UTC
Leicht bewölkt in der Höhe von 5000 ft, Towering cumulus.

TAF: LSZS 061125Z 0612/0621 22005KT 9999 FEW050 TX22/0614Z PROB40 TEMPO 0615/0619 FEW050TCU

Wetterbeobachtungen und Prognosen von mehr als 4000 Flughäfen (METAR und TAF Bericht).

Die verfügbaren Stationen werden durch gelbe und rote Markierungen auf der Karte dargestellt.

Führen Sie die Maus auf sie, um den Namen der Station zu sehen.

Darauf klicken, um die Beobachtung von Wetterbeobachtungen und Prognosen zu sehen.

Um die Karte zu ändern : klicken Sie auf den grünen Tasten mit einem schwarzen Kreuz Zum Vergrößern, auf den grünen Button mit einem Gedankenstrich zu verkleinern, oder auf die grünen Pfeile für benachbarte Karten.


METAR-TAF: